createdAt,value
2022-10-04T00:00:41.444Z,0.52
2022-10-04T00:02:00.702Z,0.47
2022-10-04T00:03:25.249Z,0.68
2022-10-04T00:04:52.710Z,0.75
2022-10-04T00:05:58.228Z,0.60
2022-10-04T00:07:07.189Z,0.70
2022-10-04T00:08:20.640Z,0.57
2022-10-04T00:09:26.781Z,0.60
2022-10-04T00:10:34.288Z,0.60
2022-10-04T00:11:38.011Z,0.52
2022-10-04T00:12:48.662Z,0.60
2022-10-04T00:13:57.057Z,0.68
2022-10-04T00:15:03.365Z,0.88
2022-10-04T00:16:05.921Z,0.60
2022-10-04T00:17:18.099Z,0.57
2022-10-04T00:18:37.338Z,0.20
2022-10-04T00:19:39.348Z,0.80
2022-10-04T00:20:50.686Z,0.60
2022-10-04T00:21:58.379Z,0.40
2022-10-04T00:23:24.827Z,0.70
2022-10-04T00:24:35.644Z,0.73
2022-10-04T00:25:37.456Z,0.60
2022-10-04T00:26:39.085Z,0.70
2022-10-04T00:28:27.069Z,0.80
2022-10-04T00:29:37.810Z,0.70
2022-10-04T00:30:39.526Z,0.50
2022-10-04T00:32:11.803Z,0.50
2022-10-04T00:33:34.765Z,0.70
2022-10-04T00:34:36.405Z,0.80
2022-10-04T00:35:38.052Z,0.57
2022-10-04T00:36:51.628Z,0.77
2022-10-04T00:38:17.470Z,0.63
2022-10-04T00:39:34.572Z,0.80
2022-10-04T00:40:46.585Z,0.60
2022-10-04T00:41:48.245Z,0.80
2022-10-04T00:42:58.830Z,0.80
2022-10-04T00:44:02.469Z,0.90
2022-10-04T00:45:14.013Z,0.70
2022-10-04T00:46:23.832Z,0.60
2022-10-04T00:47:57.525Z,0.32
2022-10-04T00:49:05.036Z,0.80
2022-10-04T00:50:33.470Z,0.50
2022-10-04T00:52:03.235Z,0.65
2022-10-04T00:53:15.028Z,0.50
2022-10-04T00:54:26.139Z,0.80
2022-10-04T00:55:52.053Z,0.65
2022-10-04T00:57:00.533Z,0.60
2022-10-04T00:58:08.516Z,0.50
2022-10-04T00:59:44.482Z,0.55
2022-10-04T01:00:49.170Z,0.70
2022-10-04T01:01:56.484Z,0.50
2022-10-04T01:03:07.490Z,0.75
2022-10-04T01:04:44.501Z,0.63
2022-10-04T01:05:51.255Z,0.70
2022-10-04T01:06:54.124Z,0.60
2022-10-04T01:08:09.007Z,0.50
2022-10-04T01:09:13.081Z,0.60
2022-10-04T01:10:21.591Z,0.75
2022-10-04T01:11:30.518Z,0.45
2022-10-04T01:12:38.181Z,0.60
2022-10-04T01:13:58.791Z,0.60
2022-10-04T01:15:32.098Z,0.50
2022-10-04T01:16:36.494Z,0.55
2022-10-04T01:17:38.411Z,0.63
2022-10-04T01:18:40.607Z,0.70
2022-10-04T01:19:52.548Z,0.60
2022-10-04T01:21:19.467Z,0.70
2022-10-04T01:22:41.912Z,0.50
2022-10-04T01:23:46.837Z,1.00
2022-10-04T01:24:48.523Z,0.88
2022-10-04T01:25:51.348Z,0.63
2022-10-04T01:26:53.140Z,0.70
2022-10-04T01:27:55.089Z,0.70
2022-10-04T01:29:22.720Z,0.60
2022-10-04T01:30:24.459Z,0.52
2022-10-04T01:31:27.550Z,0.50
2022-10-04T01:32:31.196Z,0.77
2022-10-04T01:33:32.997Z,0.98
2022-10-04T01:34:34.737Z,0.85
2022-10-04T01:35:36.587Z,0.80
2022-10-04T01:36:38.577Z,0.73
2022-10-04T01:37:41.155Z,0.70
2022-10-04T01:38:42.908Z,0.73
2022-10-04T01:39:44.757Z,0.68
2022-10-04T01:40:57.427Z,0.60
2022-10-04T01:42:20.456Z,0.55
2022-10-04T01:43:29.907Z,0.60
2022-10-04T01:45:16.621Z,0.65
2022-10-04T01:46:29.411Z,0.70
2022-10-04T01:47:42.526Z,0.60
2022-10-04T01:48:45.992Z,0.52
2022-10-04T01:49:49.084Z,0.55
2022-10-04T01:51:05.576Z,0.52
2022-10-04T01:52:33.996Z,0.75
2022-10-04T01:53:46.786Z,0.80
2022-10-04T01:54:52.226Z,0.75
2022-10-04T01:56:04.145Z,0.90
2022-10-04T01:57:23.952Z,0.63
2022-10-04T01:58:31.397Z,0.63
2022-10-04T01:59:49.836Z,0.93
2022-10-04T02:01:07.106Z,0.50
2022-10-04T02:02:34.542Z,0.68
2022-10-04T02:03:42.454Z,0.60
2022-10-04T02:04:49.710Z,0.70
2022-10-04T02:05:55.225Z,0.50
2022-10-04T02:07:00.478Z,0.80
2022-10-04T02:08:06.485Z,0.60
2022-10-04T02:09:12.858Z,0.60
2022-10-04T02:10:20.930Z,0.40
2022-10-04T02:11:23.218Z,0.47
2022-10-04T02:12:27.100Z,0.63
2022-10-04T02:13:35.762Z,0.73
2022-10-04T02:14:43.207Z,0.50
2022-10-04T02:15:47.584Z,0.70
2022-10-04T02:16:53.354Z,0.70
2022-10-04T02:17:56.913Z,0.65
2022-10-04T02:18:59.521Z,0.40
2022-10-04T02:20:02.679Z,0.68
2022-10-04T02:21:06.700Z,0.60
2022-10-04T02:22:10.928Z,0.82
2022-10-04T02:23:13.244Z,1.00
2022-10-04T02:24:15.564Z,0.73
2022-10-04T02:25:20.471Z,0.60
2022-10-04T02:26:22.185Z,0.68
2022-10-04T02:27:31.737Z,0.60
2022-10-04T02:28:35.040Z,0.60
2022-10-04T02:29:36.946Z,0.88
2022-10-04T02:30:41.427Z,0.60
2022-10-04T02:32:02.390Z,0.70
2022-10-04T02:33:04.714Z,0.70
2022-10-04T02:34:07.150Z,0.80
2022-10-04T02:35:08.904Z,0.45
2022-10-04T02:36:11.929Z,0.85
2022-10-04T02:37:15.394Z,0.50
2022-10-04T02:38:22.625Z,0.70
2022-10-04T02:39:30.388Z,0.70
2022-10-04T02:40:39.626Z,0.82
2022-10-04T02:41:52.406Z,0.60
2022-10-04T02:43:10.911Z,0.70
2022-10-04T02:44:18.550Z,0.57
2022-10-04T02:45:27.823Z,0.45
2022-10-04T02:46:55.744Z,0.70
2022-10-04T02:48:15.814Z,0.80
2022-10-04T02:49:41.994Z,0.50
2022-10-04T02:50:52.010Z,0.70
2022-10-04T02:52:02.286Z,0.65
2022-10-04T02:53:30.014Z,0.60
2022-10-04T02:54:49.602Z,0.50
2022-10-04T02:55:51.748Z,0.70
2022-10-04T02:56:55.632Z,0.73
2022-10-04T02:57:58.748Z,0.77
2022-10-04T02:59:02.708Z,0.82
2022-10-04T03:00:10.718Z,0.65
2022-10-04T03:01:25.874Z,0.32
2022-10-04T03:02:30.783Z,0.70
2022-10-04T03:03:39.480Z,0.50
2022-10-04T03:04:41.409Z,0.60
2022-10-04T03:05:55.499Z,0.50
2022-10-04T03:07:00.507Z,0.70
2022-10-04T03:08:05.015Z,0.73
2022-10-04T03:09:07.276Z,0.60
2022-10-04T03:10:12.483Z,0.50
2022-10-04T03:11:19.109Z,0.80
2022-10-04T03:12:22.288Z,0.77
2022-10-04T03:13:24.316Z,0.57
2022-10-04T03:14:28.943Z,0.60
2022-10-04T03:15:32.669Z,0.57
2022-10-04T03:16:38.106Z,0.70
2022-10-04T03:17:44.329Z,1.30
2022-10-04T03:18:48.313Z,0.93
2022-10-04T03:19:50.419Z,1.05
2022-10-04T03:20:52.518Z,1.02
2022-10-04T03:21:57.674Z,0.80
2022-10-04T03:22:59.448Z,1.30
2022-10-04T03:24:04.252Z,1.17
2022-10-04T03:25:06.897Z,1.00
2022-10-04T03:26:22.600Z,0.82
2022-10-04T03:27:34.400Z,1.27
2022-10-04T03:28:37.502Z,1.00
2022-10-04T03:29:41.039Z,1.00
2022-10-04T03:30:44.755Z,1.00
2022-10-04T03:31:50.493Z,1.15
2022-10-04T03:32:53.186Z,1.10
2022-10-04T03:33:58.612Z,1.13
2022-10-04T03:35:04.113Z,1.30
2022-10-04T03:36:07.106Z,1.40
2022-10-04T03:37:15.640Z,1.33
2022-10-04T03:38:18.286Z,1.00
2022-10-04T03:39:28.648Z,1.17
2022-10-04T03:40:33.282Z,1.33
2022-10-04T03:41:39.264Z,0.93
2022-10-04T03:42:41.364Z,1.15
2022-10-04T03:43:46.446Z,1.13
2022-10-04T03:44:51.730Z,1.33
2022-10-04T03:45:54.027Z,1.10
2022-10-04T03:46:56.037Z,0.80
2022-10-04T03:48:05.125Z,1.10
2022-10-04T03:49:08.413Z,0.85
2022-10-04T03:50:26.712Z,0.60
2022-10-04T03:51:29.492Z,0.88
2022-10-04T03:52:34.969Z,0.55
2022-10-04T03:53:44.038Z,0.98
2022-10-04T03:54:47.461Z,0.60
2022-10-04T03:55:49.218Z,1.00
2022-10-04T03:56:54.322Z,0.70
2022-10-04T03:57:56.911Z,0.75
2022-10-04T03:58:59.431Z,0.63
2022-10-04T04:00:01.911Z,0.80
2022-10-04T04:01:26.085Z,0.88
2022-10-04T04:02:33.784Z,0.70
2022-10-04T04:03:46.940Z,1.00
2022-10-04T04:05:11.684Z,0.80
2022-10-04T04:06:19.014Z,1.10
2022-10-04T04:07:28.339Z,0.60
2022-10-04T04:08:33.982Z,0.73
2022-10-04T04:09:41.374Z,0.80
2022-10-04T04:10:48.268Z,0.70
2022-10-04T04:11:51.611Z,0.60
2022-10-04T04:12:58.577Z,0.85
2022-10-04T04:14:10.975Z,0.90
2022-10-04T04:15:14.779Z,0.80
2022-10-04T04:16:19.440Z,0.95
2022-10-04T04:17:29.753Z,0.90
2022-10-04T04:18:38.676Z,0.60
2022-10-04T04:19:41.059Z,0.60
2022-10-04T04:20:44.351Z,0.70
2022-10-04T04:21:46.896Z,0.65
2022-10-04T04:22:58.328Z,0.50
2022-10-04T04:24:05.509Z,0.90
2022-10-04T04:25:14.465Z,0.85
2022-10-04T04:26:36.974Z,0.52
2022-10-04T04:27:41.131Z,0.60
2022-10-04T04:28:49.153Z,0.50
2022-10-04T04:29:53.249Z,0.90
2022-10-04T04:31:07.747Z,0.60
2022-10-04T04:32:18.388Z,0.82
2022-10-04T04:33:45.057Z,0.65
2022-10-04T04:35:00.870Z,0.85
2022-10-04T04:36:07.220Z,0.90
2022-10-04T04:37:10.797Z,0.80
2022-10-04T04:38:22.011Z,0.75
2022-10-04T04:39:41.099Z,0.90
2022-10-04T04:40:43.233Z,0.75
2022-10-04T04:41:50.179Z,1.17
2022-10-04T04:42:52.995Z,0.65
2022-10-04T04:43:55.070Z,1.00
2022-10-04T04:45:00.736Z,0.50
2022-10-04T04:46:26.139Z,0.65
2022-10-04T04:47:35.211Z,0.65
2022-10-04T04:48:37.521Z,0.68
2022-10-04T04:49:40.428Z,0.60
2022-10-04T04:50:42.441Z,0.75
2022-10-04T04:51:50.991Z,0.50
2022-10-04T04:52:57.799Z,0.98
2022-10-04T04:54:03.687Z,0.80
2022-10-04T04:55:15.487Z,0.50
2022-10-04T04:56:21.548Z,0.90
2022-10-04T04:57:23.806Z,0.80
2022-10-04T04:58:33.030Z,0.73
2022-10-04T04:59:37.153Z,0.88
2022-10-04T05:00:39.835Z,0.68
2022-10-04T05:01:47.107Z,0.80
2022-10-04T05:03:03.126Z,1.00
2022-10-04T05:04:12.684Z,0.90
2022-10-04T05:05:14.433Z,1.13
2022-10-04T05:06:26.629Z,0.82
2022-10-04T05:07:29.567Z,0.70
2022-10-04T05:08:38.585Z,0.80
2022-10-04T05:09:42.980Z,0.77
2022-10-04T05:10:52.001Z,0.70
2022-10-04T05:11:59.627Z,0.80
2022-10-04T05:13:03.789Z,0.98
2022-10-04T05:14:09.587Z,0.65
2022-10-04T05:15:11.537Z,0.80
2022-10-04T05:16:25.780Z,0.60
2022-10-04T05:17:34.796Z,0.80
2022-10-04T05:18:36.547Z,0.70
2022-10-04T05:19:40.244Z,0.80
2022-10-04T05:20:49.714Z,0.90
2022-10-04T05:21:57.289Z,0.80
2022-10-04T05:22:59.388Z,0.65
2022-10-04T05:24:17.747Z,0.80
2022-10-04T05:25:33.614Z,0.60
2022-10-04T05:26:35.352Z,0.80
2022-10-04T05:27:39.813Z,0.70
2022-10-04T05:28:41.837Z,0.80
2022-10-04T05:30:10.310Z,0.70
2022-10-04T05:31:28.832Z,0.75
2022-10-04T05:32:54.612Z,0.77
2022-10-04T05:33:58.795Z,0.73
2022-10-04T05:35:01.875Z,1.08
2022-10-04T05:36:13.827Z,0.80
2022-10-04T05:37:37.037Z,1.15
2022-10-04T05:39:06.850Z,0.93
2022-10-04T05:40:56.892Z,0.60
2022-10-04T05:42:07.844Z,1.05
2022-10-04T05:43:45.682Z,1.00
2022-10-04T05:44:52.537Z,0.65
2022-10-04T05:46:26.404Z,0.82
2022-10-04T05:47:30.703Z,0.70
2022-10-04T05:48:33.876Z,0.63
2022-10-04T05:49:46.643Z,0.50
2022-10-04T05:50:48.897Z,0.90
2022-10-04T05:52:01.092Z,0.77
2022-10-04T05:53:33.557Z,0.75
2022-10-04T05:54:36.060Z,1.10
2022-10-04T05:55:53.081Z,0.75
2022-10-04T05:57:07.015Z,0.90
2022-10-04T05:58:28.629Z,0.80
2022-10-04T05:59:48.804Z,0.93
2022-10-04T06:01:26.706Z,1.02
2022-10-04T06:02:37.691Z,0.88
2022-10-04T06:03:45.500Z,0.73
2022-10-04T06:04:53.292Z,1.00
2022-10-04T06:05:57.504Z,0.90
2022-10-04T06:07:17.778Z,0.77
2022-10-04T06:08:27.480Z,0.68
2022-10-04T06:09:56.054Z,0.70
2022-10-04T06:11:13.552Z,0.95
2022-10-04T06:12:40.142Z,0.80
2022-10-04T06:14:21.034Z,0.70
2022-10-04T06:15:36.628Z,1.08
2022-10-04T06:17:04.288Z,1.10
2022-10-04T06:18:13.761Z,0.88
2022-10-04T06:19:47.030Z,0.90
2022-10-04T06:21:13.126Z,0.70
2022-10-04T06:22:22.960Z,0.90
2022-10-04T06:23:26.696Z,1.00
2022-10-04T06:24:34.063Z,1.15
2022-10-04T06:25:57.283Z,0.90
2022-10-04T06:27:09.365Z,0.80
2022-10-04T06:28:21.169Z,0.68
2022-10-04T06:29:29.707Z,1.23
2022-10-04T06:30:53.742Z,1.13
2022-10-04T06:32:11.277Z,1.20
2022-10-04T06:34:10.187Z,0.90
2022-10-04T06:35:20.780Z,1.10
2022-10-04T06:36:31.737Z,0.80
2022-10-04T06:38:08.873Z,0.88
2022-10-04T06:39:25.561Z,0.82
2022-10-04T06:40:36.441Z,0.90
2022-10-04T06:41:38.285Z,0.85
2022-10-04T06:43:26.328Z,1.30
2022-10-04T06:45:17.838Z,0.93
2022-10-04T06:46:43.643Z,0.90
2022-10-04T06:47:54.626Z,0.82
2022-10-04T06:49:25.520Z,0.95
2022-10-04T06:50:48.208Z,1.00
2022-10-04T06:51:56.900Z,0.80
2022-10-04T06:53:04.305Z,0.90
2022-10-04T06:54:38.830Z,0.98
2022-10-04T06:56:03.145Z,0.85
2022-10-04T06:57:08.435Z,0.60
2022-10-04T06:58:34.206Z,0.90
2022-10-04T06:59:46.096Z,0.60
2022-10-04T07:00:58.666Z,0.70
2022-10-04T07:02:06.892Z,0.98
2022-10-04T07:03:26.513Z,0.90
2022-10-04T07:05:07.413Z,0.70
2022-10-04T07:06:11.782Z,0.60
2022-10-04T07:07:42.143Z,0.80
2022-10-04T07:08:50.692Z,0.82
2022-10-04T07:10:17.305Z,0.85
2022-10-04T07:11:18.992Z,0.88
2022-10-04T07:12:21.378Z,0.73
2022-10-04T07:13:28.803Z,0.65
2022-10-04T07:14:45.271Z,1.05
2022-10-04T07:16:00.579Z,0.60
2022-10-04T07:17:10.261Z,1.00
2022-10-04T07:18:22.248Z,0.90
2022-10-04T07:19:42.307Z,1.05
2022-10-04T07:20:45.666Z,0.90
2022-10-04T07:22:12.399Z,1.00
2022-10-04T07:23:28.932Z,0.95
2022-10-04T07:24:51.023Z,0.60
2022-10-04T07:26:02.000Z,0.85
2022-10-04T07:27:08.520Z,0.80
2022-10-04T07:28:29.023Z,0.88
2022-10-04T07:29:42.338Z,1.27
2022-10-04T07:30:51.832Z,0.95
2022-10-04T07:32:09.403Z,0.68
2022-10-04T07:33:17.294Z,1.10
2022-10-04T07:34:52.622Z,0.80
2022-10-04T07:36:11.384Z,0.95
2022-10-04T07:37:14.347Z,0.90
2022-10-04T07:38:23.921Z,0.80
2022-10-04T07:39:33.720Z,0.75
2022-10-04T07:40:40.872Z,0.90
2022-10-04T07:41:51.972Z,1.00
2022-10-04T07:43:04.867Z,0.70
2022-10-04T07:44:27.591Z,0.98
2022-10-04T07:45:33.359Z,0.70
2022-10-04T07:46:52.979Z,0.93
2022-10-04T07:48:16.044Z,0.60
2022-10-04T07:49:21.225Z,0.63
2022-10-04T07:50:24.828Z,0.80
2022-10-04T07:51:41.748Z,0.77
2022-10-04T07:53:08.550Z,1.02
2022-10-04T07:54:29.916Z,0.77
2022-10-04T07:56:03.333Z,1.00
2022-10-04T07:57:49.411Z,0.55
2022-10-04T07:59:04.135Z,0.70
2022-10-04T08:00:17.789Z,1.10
2022-10-04T08:01:47.243Z,0.85
2022-10-04T08:03:13.874Z,0.82
2022-10-04T08:04:42.609Z,0.90
2022-10-04T08:06:14.775Z,0.73
2022-10-04T08:07:27.265Z,0.70
2022-10-04T08:08:50.544Z,0.93
2022-10-04T08:10:30.332Z,1.00
2022-10-04T08:11:56.876Z,0.60
2022-10-04T08:13:14.714Z,0.75
2022-10-04T08:14:39.382Z,0.90
2022-10-04T08:15:44.318Z,0.73
2022-10-04T08:16:55.104Z,0.80
2022-10-04T08:18:11.477Z,1.17
2022-10-04T08:19:36.331Z,0.65
2022-10-04T08:20:43.978Z,0.70
2022-10-04T08:21:52.502Z,0.98
2022-10-04T08:23:15.365Z,0.88
2022-10-04T08:24:29.517Z,0.88
2022-10-04T08:25:33.797Z,0.80
2022-10-04T08:26:54.072Z,0.85
2022-10-04T08:28:33.206Z,0.55
2022-10-04T08:29:59.175Z,0.80
2022-10-04T08:31:26.984Z,0.75
2022-10-04T08:32:47.105Z,0.73
2022-10-04T08:34:04.961Z,0.90
2022-10-04T08:35:11.575Z,0.95
2022-10-04T08:36:25.180Z,0.90
2022-10-04T08:37:42.571Z,0.80
2022-10-04T08:38:58.756Z,0.77
2022-10-04T08:40:13.226Z,0.90
2022-10-04T08:41:36.497Z,0.65
2022-10-04T08:42:59.786Z,0.60
2022-10-04T08:44:31.670Z,0.70
2022-10-04T08:46:01.445Z,0.95
2022-10-04T08:47:41.087Z,1.00
2022-10-04T08:49:19.927Z,0.50
2022-10-04T08:50:21.784Z,0.80
2022-10-04T08:51:58.734Z,0.70
2022-10-04T08:53:31.808Z,0.70
2022-10-04T08:55:01.406Z,0.68
2022-10-04T08:56:11.056Z,0.77
2022-10-04T08:57:43.754Z,0.80
2022-10-04T08:59:06.952Z,0.95
2022-10-04T09:00:21.445Z,0.63
2022-10-04T09:01:52.447Z,0.88
2022-10-04T09:02:54.310Z,0.90
2022-10-04T09:04:14.615Z,0.70
2022-10-04T09:05:34.848Z,0.55
2022-10-04T09:06:56.644Z,0.88
2022-10-04T09:08:10.318Z,0.75
2022-10-04T09:09:29.031Z,0.60
2022-10-04T09:10:40.365Z,0.60
2022-10-04T09:11:51.388Z,0.80
2022-10-04T09:13:31.377Z,0.70
2022-10-04T09:15:02.606Z,0.65
2022-10-04T09:16:17.771Z,0.80
2022-10-04T09:17:39.403Z,0.65
2022-10-04T09:18:50.088Z,0.80
2022-10-04T09:20:37.900Z,1.00
2022-10-04T09:21:54.685Z,0.80
2022-10-04T09:23:11.969Z,0.60
2022-10-04T09:24:38.880Z,0.95
2022-10-04T09:25:56.496Z,0.68
2022-10-04T09:27:50.104Z,0.70
2022-10-04T09:29:04.712Z,0.65
2022-10-04T09:30:20.194Z,0.70
2022-10-04T09:31:51.224Z,1.02
2022-10-04T09:33:46.369Z,0.70
2022-10-04T09:35:03.991Z,0.55
2022-10-04T09:36:05.709Z,0.90
2022-10-04T09:37:31.621Z,0.63
2022-10-04T09:39:11.496Z,0.80
2022-10-04T09:40:28.779Z,0.70
2022-10-04T09:42:08.620Z,0.68
2022-10-04T09:43:46.576Z,0.77
2022-10-04T09:45:07.550Z,0.93
2022-10-04T09:46:29.985Z,0.70
2022-10-04T09:47:38.129Z,0.70
2022-10-04T09:48:54.912Z,0.80
2022-10-04T09:50:26.562Z,0.70
2022-10-04T09:52:01.888Z,0.80
2022-10-04T09:53:28.207Z,0.57
2022-10-04T09:54:29.952Z,0.80
2022-10-04T09:55:50.004Z,0.63
2022-10-04T09:57:09.593Z,1.00
2022-10-04T09:58:22.454Z,0.73
2022-10-04T09:59:46.038Z,0.70
2022-10-04T10:01:17.141Z,1.13
2022-10-04T10:02:38.766Z,0.70
2022-10-04T10:04:42.199Z,0.90
2022-10-04T10:05:43.897Z,1.02
2022-10-04T10:06:51.518Z,0.73
2022-10-04T10:08:18.220Z,1.00
2022-10-04T10:09:43.013Z,1.20
2022-10-04T10:11:33.622Z,1.10
2022-10-04T10:13:02.215Z,1.20
2022-10-04T10:14:22.078Z,1.20
2022-10-04T10:15:42.689Z,0.80
2022-10-04T10:17:09.361Z,0.73
2022-10-04T10:18:27.921Z,1.02
2022-10-04T10:19:48.023Z,1.20
2022-10-04T10:21:28.624Z,0.90
2022-10-04T10:22:49.048Z,1.10
2022-10-04T10:24:30.135Z,1.30
2022-10-04T10:25:44.955Z,1.27
2022-10-04T10:27:11.066Z,1.10
2022-10-04T10:28:55.704Z,1.17
2022-10-04T10:29:57.450Z,1.00
2022-10-04T10:31:11.122Z,1.25
2022-10-04T10:32:58.420Z,1.45
2022-10-04T10:34:12.139Z,1.73
2022-10-04T10:35:24.348Z,2.00
2022-10-04T10:36:53.299Z,2.45
2022-10-04T10:38:04.863Z,2.53
2022-10-04T10:39:27.879Z,2.10
2022-10-04T10:40:41.123Z,2.05
2022-10-04T10:42:07.425Z,2.20
2022-10-04T10:43:31.529Z,2.03
2022-10-04T10:45:10.558Z,2.63
2022-10-04T10:46:31.353Z,2.35
2022-10-04T10:48:01.699Z,1.90
2022-10-04T10:49:24.390Z,2.15
2022-10-04T10:51:01.355Z,2.10
2022-10-04T10:52:47.152Z,2.13
2022-10-04T10:54:30.177Z,1.88
2022-10-04T10:55:59.861Z,1.50
2022-10-04T10:57:25.557Z,1.73
2022-10-04T10:58:45.486Z,1.60
2022-10-04T11:00:00.672Z,1.73
2022-10-04T11:01:29.839Z,1.27
2022-10-04T11:03:13.760Z,1.60
2022-10-04T11:04:38.312Z,1.60
2022-10-04T11:06:15.654Z,1.65
2022-10-04T11:07:18.218Z,1.30
2022-10-04T11:08:45.589Z,1.50
2022-10-04T11:10:06.029Z,1.42
2022-10-04T11:11:56.517Z,1.38
2022-10-04T11:13:35.619Z,1.40
2022-10-04T11:14:37.287Z,1.48
2022-10-04T11:16:04.089Z,1.40
2022-10-04T11:17:29.275Z,1.45
2022-10-04T11:19:18.937Z,1.77
2022-10-04T11:20:37.800Z,1.80
2022-10-04T11:22:07.522Z,1.70
2022-10-04T11:23:51.976Z,2.40
2022-10-04T11:25:05.834Z,2.50
2022-10-04T11:26:22.344Z,2.20
2022-10-04T11:27:29.775Z,2.33
2022-10-04T11:28:46.931Z,2.60
2022-10-04T11:30:08.942Z,2.53
2022-10-04T11:31:10.641Z,2.50
2022-10-04T11:32:22.160Z,2.67
2022-10-04T11:33:53.048Z,2.30
2022-10-04T11:35:19.866Z,2.53
2022-10-04T11:36:30.356Z,2.20
2022-10-04T11:37:50.277Z,2.13
2022-10-04T11:39:36.347Z,2.00
2022-10-04T11:41:11.520Z,2.10
2022-10-04T11:42:50.356Z,2.00
2022-10-04T11:44:31.581Z,1.80
2022-10-04T11:45:42.742Z,1.90
2022-10-04T11:46:56.387Z,1.67
2022-10-04T11:48:18.342Z,1.60
2022-10-04T11:49:57.719Z,1.80
2022-10-04T11:51:09.201Z,1.80
2022-10-04T11:52:29.486Z,1.50
2022-10-04T11:54:03.759Z,1.60
2022-10-04T11:55:22.124Z,1.95
2022-10-04T11:57:05.480Z,1.80
2022-10-04T11:58:12.050Z,1.92
2022-10-04T11:59:29.167Z,1.83
2022-10-04T12:01:00.987Z,1.70
2022-10-04T12:02:09.327Z,1.98
2022-10-04T12:03:47.784Z,2.05
2022-10-04T12:05:07.722Z,1.88
2022-10-04T12:06:47.157Z,1.98
2022-10-04T12:08:22.842Z,1.50
2022-10-04T12:09:39.553Z,1.40
2022-10-04T12:10:42.945Z,1.65
2022-10-04T12:12:21.492Z,1.75
2022-10-04T12:14:07.643Z,1.40
2022-10-04T12:15:32.885Z,1.92
2022-10-04T12:16:46.572Z,1.70
2022-10-04T12:18:28.690Z,1.60
2022-10-04T12:19:52.400Z,1.58
2022-10-04T12:21:00.142Z,1.50
2022-10-04T12:22:45.607Z,1.30
2022-10-04T12:24:06.151Z,1.42
2022-10-04T12:25:26.978Z,1.23
2022-10-04T12:26:47.972Z,1.50
2022-10-04T12:28:21.162Z,1.30
2022-10-04T12:29:53.270Z,1.25
2022-10-04T12:31:19.160Z,1.30
2022-10-04T12:32:40.091Z,1.30
2022-10-04T12:33:54.261Z,1.10
2022-10-04T12:35:25.350Z,1.27
2022-10-04T12:36:39.498Z,1.30
2022-10-04T12:38:09.268Z,1.17
2022-10-04T12:39:36.197Z,1.10
2022-10-04T12:40:51.492Z,1.05
2022-10-04T12:42:35.309Z,0.95
2022-10-04T12:43:40.251Z,0.95
2022-10-04T12:45:44.486Z,1.17
2022-10-04T12:47:22.376Z,1.08
2022-10-04T12:48:39.028Z,1.27
2022-10-04T12:50:00.874Z,1.10
2022-10-04T12:51:46.163Z,1.20
2022-10-04T12:52:51.172Z,1.10
2022-10-04T12:54:13.287Z,1.20
2022-10-04T12:55:44.626Z,1.00
2022-10-04T12:56:53.900Z,0.55
2022-10-04T12:58:04.826Z,0.73
2022-10-04T12:59:29.364Z,0.95
2022-10-04T13:00:41.066Z,1.00
2022-10-04T13:01:56.767Z,0.68
2022-10-04T13:03:24.832Z,1.10
2022-10-04T13:04:54.532Z,1.10
2022-10-04T13:06:03.071Z,0.88
2022-10-04T13:07:23.069Z,0.35
2022-10-04T13:08:58.398Z,0.90
2022-10-04T13:10:25.527Z,0.60
2022-10-04T13:11:53.345Z,0.85
2022-10-04T13:13:11.203Z,0.98
2022-10-04T13:14:25.987Z,0.50
2022-10-04T13:17:35.149Z,0.80
2022-10-04T13:18:51.150Z,0.80
2022-10-04T13:20:32.672Z,0.75
2022-10-04T13:21:37.239Z,0.73
2022-10-04T13:23:06.188Z,0.85
2022-10-04T13:24:55.312Z,1.10
2022-10-04T13:26:21.524Z,0.70
2022-10-04T13:27:33.875Z,0.82
2022-10-04T13:28:38.434Z,0.70
2022-10-04T13:29:55.382Z,1.20
2022-10-04T13:31:24.899Z,1.00
2022-10-04T13:32:34.187Z,0.82
2022-10-04T13:34:16.731Z,0.80
2022-10-04T13:35:23.160Z,1.00
2022-10-04T13:36:49.198Z,0.85
2022-10-04T13:38:06.742Z,0.70
2022-10-04T13:39:20.860Z,0.80
2022-10-04T13:40:56.024Z,1.13
2022-10-04T13:42:12.441Z,0.90
2022-10-04T13:43:42.791Z,0.88
2022-10-04T13:45:03.360Z,0.80
2022-10-04T13:46:40.189Z,1.08
2022-10-04T13:47:54.696Z,0.90
2022-10-04T13:49:02.315Z,0.88
2022-10-04T13:50:31.307Z,1.05
2022-10-04T13:51:45.575Z,0.80
2022-10-04T13:53:35.846Z,1.17
2022-10-04T13:55:25.804Z,1.45
2022-10-04T13:57:05.900Z,0.90
2022-10-04T13:58:33.529Z,1.00
2022-10-04T14:00:05.360Z,1.48
2022-10-04T14:01:33.927Z,0.90
2022-10-04T14:03:03.045Z,1.23
2022-10-04T14:04:29.276Z,1.50
2022-10-04T14:05:56.427Z,1.02
2022-10-04T14:07:10.632Z,1.27
2022-10-04T14:08:50.815Z,1.10
2022-10-04T14:10:10.984Z,1.10
2022-10-04T14:11:33.053Z,1.63
2022-10-04T14:12:53.116Z,1.30
2022-10-04T14:14:08.716Z,1.00
2022-10-04T14:15:27.658Z,1.08
2022-10-04T14:16:57.322Z,1.08
2022-10-04T14:18:27.531Z,1.17
2022-10-04T14:19:59.339Z,1.00
2022-10-04T14:21:22.832Z,0.98
2022-10-04T14:22:45.728Z,1.10
2022-10-04T14:24:21.565Z,0.90
2022-10-04T14:25:49.302Z,1.02
2022-10-04T14:27:12.996Z,1.10
2022-10-04T14:28:52.286Z,1.10
2022-10-04T14:30:51.406Z,0.98
2022-10-04T14:32:14.171Z,0.98
2022-10-04T14:33:58.971Z,1.30
2022-10-04T14:35:12.923Z,1.00
2022-10-04T14:36:23.675Z,1.00
2022-10-04T14:37:41.104Z,1.05
2022-10-04T14:39:20.857Z,0.75
2022-10-04T14:41:00.190Z,0.98
2022-10-04T14:42:49.760Z,0.98
2022-10-04T14:44:18.716Z,1.13
2022-10-04T14:45:23.384Z,0.93
2022-10-04T14:46:46.898Z,0.95
2022-10-04T14:48:02.443Z,0.90
2022-10-04T14:49:30.153Z,0.93
2022-10-04T14:50:57.835Z,0.85
2022-10-04T14:52:04.647Z,1.23
2022-10-04T14:53:16.280Z,1.00
2022-10-04T14:54:26.896Z,0.50
2022-10-04T14:56:05.762Z,1.23
2022-10-04T14:57:21.039Z,0.90
2022-10-04T14:58:41.074Z,1.05
2022-10-04T15:00:11.622Z,0.90
2022-10-04T15:01:27.959Z,0.90
2022-10-04T15:02:32.272Z,0.90
2022-10-04T15:04:13.593Z,0.82
2022-10-04T15:05:33.410Z,0.85
2022-10-04T15:06:48.597Z,1.10
2022-10-04T15:07:56.069Z,0.73
2022-10-04T15:09:11.822Z,1.00
2022-10-04T15:10:19.234Z,0.90
2022-10-04T15:11:42.332Z,0.90
2022-10-04T15:13:12.453Z,0.90
2022-10-04T15:14:23.841Z,1.08
2022-10-04T15:15:34.148Z,1.30
2022-10-04T15:16:58.213Z,1.17
2022-10-04T15:18:22.639Z,1.17
2022-10-04T15:19:29.688Z,1.10
2022-10-04T15:20:57.157Z,1.25
2022-10-04T15:22:05.013Z,0.95
2022-10-04T15:23:06.704Z,0.95
2022-10-04T15:24:17.703Z,1.00
2022-10-04T15:25:40.450Z,0.90
2022-10-04T15:26:45.593Z,1.17
2022-10-04T15:27:51.800Z,0.90
2022-10-04T15:29:03.119Z,0.90
2022-10-04T15:30:23.246Z,0.80
2022-10-04T15:31:41.503Z,1.00
2022-10-04T15:33:01.467Z,1.00
2022-10-04T15:34:24.724Z,1.20
2022-10-04T15:35:49.928Z,0.90
2022-10-04T15:37:15.733Z,1.15
2022-10-04T15:38:38.532Z,1.10
2022-10-04T15:40:03.901Z,0.95
2022-10-04T15:41:18.515Z,0.93
2022-10-04T15:42:33.809Z,1.00
2022-10-04T15:44:07.791Z,0.85
2022-10-04T15:45:18.547Z,1.02
2022-10-04T15:46:29.148Z,0.82
2022-10-04T15:48:11.272Z,0.82
2022-10-04T15:50:17.369Z,0.90
2022-10-04T15:51:56.225Z,1.00
2022-10-04T15:53:28.572Z,1.38
2022-10-04T15:54:44.649Z,1.00
2022-10-04T15:56:24.437Z,0.80
2022-10-04T15:57:44.570Z,0.80
2022-10-04T15:58:56.089Z,0.88
2022-10-04T16:00:54.770Z,1.02
2022-10-04T16:02:27.046Z,0.75
2022-10-04T16:03:46.342Z,0.70
2022-10-04T16:05:25.367Z,1.23
2022-10-04T16:06:56.652Z,1.00
2022-10-04T16:08:48.817Z,0.82
2022-10-04T16:09:58.861Z,1.27
2022-10-04T16:11:23.689Z,0.70
2022-10-04T16:12:25.464Z,0.95
2022-10-04T16:13:45.512Z,0.90
2022-10-04T16:15:19.504Z,0.98
2022-10-04T16:16:35.287Z,0.88
2022-10-04T16:18:05.417Z,0.82
2022-10-04T16:19:19.460Z,0.82
2022-10-04T16:20:31.315Z,0.80
2022-10-04T16:21:48.399Z,0.85
2022-10-04T16:23:24.265Z,0.80
2022-10-04T16:24:39.575Z,1.10
2022-10-04T16:25:42.215Z,0.80
2022-10-04T16:26:44.269Z,1.00
2022-10-04T16:28:12.673Z,1.02
2022-10-04T16:30:07.957Z,1.25
2022-10-04T16:31:19.930Z,0.93
2022-10-04T16:32:36.407Z,1.35
2022-10-04T16:33:51.534Z,1.10
2022-10-04T16:34:57.187Z,0.85
2022-10-04T16:36:19.829Z,1.05
2022-10-04T16:37:24.418Z,1.02
2022-10-04T16:38:28.944Z,0.93
2022-10-04T16:40:08.426Z,0.80
2022-10-04T16:41:14.552Z,0.90
2022-10-04T16:42:18.853Z,0.93
2022-10-04T16:43:20.529Z,1.00
2022-10-04T16:44:30.909Z,1.20
2022-10-04T16:45:41.112Z,0.80
2022-10-04T16:46:46.328Z,0.95
2022-10-04T16:47:48.443Z,0.90
2022-10-04T16:49:04.375Z,0.98
2022-10-04T16:50:11.187Z,1.10
2022-10-04T16:51:19.265Z,1.25
2022-10-04T16:52:36.165Z,1.10
2022-10-04T16:54:08.567Z,1.10
2022-10-04T16:55:20.829Z,1.05
2022-10-04T16:56:25.031Z,0.90
2022-10-04T16:57:27.939Z,1.10
2022-10-04T16:58:37.650Z,1.05
2022-10-04T16:59:39.448Z,1.00
2022-10-04T17:00:41.344Z,1.00
2022-10-04T17:02:10.898Z,0.90
2022-10-04T17:03:35.617Z,0.90
2022-10-04T17:04:38.202Z,1.00
2022-10-04T17:06:11.856Z,1.05
2022-10-04T17:07:33.962Z,0.93
2022-10-04T17:09:04.757Z,0.90
2022-10-04T17:10:35.798Z,0.77